Terminal Aerodrome Forecast
Issued by NWS

Home | Current Version | Previous Version | Text Only | Print | Product List | Glossary Off
Versions: 1 2 3 4 5 6 7 8 9 10 11 12 13 14 15 16 17 18 19 20

978
FTUS43 KFGF 211122
TAFBJI
TAF
KBJI 211122Z 2112/2212 15006KT P6SM FEW250
     FM211500 15011KT P6SM SCT250
     FM212000 15013G18KT P6SM SCT200
     FM220100 14012KT P6SM BKN090
     FM220500 15007KT P6SM BKN110
     FM220800 15004KT P6SM VCTS BKN035CB=

USA.gov is the U.S. government's official web portal to all federal, state and local government web resources and services.